aviador You're here:

OEJN Decoded Metar

JEDDAH in SAUDI ARABIA
Report Time2018-02-20 13:00:00
UTC Time2018-02-20 13:54:42
Flight Rules vfr VFR
Wind230° at 09 kt
W.Decomp.*RWY 16: 3.5 kt HW 8.3 kt RCW
W.Rank230° ranks 22
Current wind is above 230° avg. (8.3)
Visibility9999 m
Phenomena:N/A
Clouds:N/A
Expected CloudBase > 4,000 ft AGL from Temp-Dew spread
CeilingNone
Temp27°C (ISA +12)
Dew Point17°C (54% RH)
Heat Index27.7°C
AAT26.1°C
QNH1007 hPa
Density Alt1,903 ft
Elevation49 ft
Report Wrong Elevation
Raw Report
METAR OEJN 201300Z 23009KT CAVOK 27/17 Q1007 NOSIG=

Extra information for OEJN:More info

Metar Taf Metar & Taf Last 4 Metars F.Rules Stats Wind Profile Meteogram Temp Stats Airport Information Weather charts Add Link Nearby VenuesMetar ALERT Operation Metar Decoded Social comments